Tayabas, Philippines
Current Conditions -  °F | °C
As of 7:00 PM on Saturday 25 Oct 2014 (Local Time) from RPLL Reporting Station
Scattered Clouds Scattered Clouds  
Wind Chill: 84°   Ceiling: Unl
Heat Index: 94°   Visibility: 6mi
Dew Point: 77°   Wind: 8mph
Humidity: 79%   Direction: 100°E
Pressure: 29.88"   Gusts: NA
Location:  14.03°N, 121.59°E
Report Text: RPLL 251100Z 10007KT 080V140 9999 SCT025 29/25 Q1012 NOSIG RMK A2988
Loading
Personal Weather Stations






























Interactive Weather Map
Tropical Storm Tracking
New forecast layout! Learn more

10-Day Weather Forecast

Advertisements
Track Severe Weather on mobile